sensor_id;sensor_type;location;lat;lon;timestamp;temperature;humidity
17701;DHT22;8969;48.576;12.580;2022-07-04T00:02:04;17.50;99.90
17701;DHT22;8969;48.576;12.580;2022-07-04T00:04:34;17.60;99.90
17701;DHT22;8969;48.576;12.580;2022-07-04T00:07:03;17.60;99.90
17701;DHT22;8969;48.576;12.580;2022-07-04T00:09:32;17.60;99.90
17701;DHT22;8969;48.576;12.580;2022-07-04T00:12:00;17.50;99.90
17701;DHT22;8969;48.576;12.580;2022-07-04T00:14:29;17.60;99.90
17701;DHT22;8969;48.576;12.580;2022-07-04T00:16:57;17.60;99.90
17701;DHT22;8969;48.576;12.580;2022-07-04T00:19:25;17.60;99.90
17701;DHT22;8969;48.576;12.580;2022-07-04T00:21:55;17.60;99.90
17701;DHT22;8969;48.576;12.580;2022-07-04T00:24:23;17.60;99.90
17701;DHT22;8969;48.576;12.580;2022-07-04T00:26:52;17.60;99.90
17701;DHT22;8969;48.576;12.580;2022-07-04T00:29:20;17.60;99.90
17701;DHT22;8969;48.576;12.580;2022-07-04T00:31:48;17.60;99.90
17701;DHT22;8969;48.576;12.580;2022-07-04T00:34:16;17.60;99.90
17701;DHT22;8969;48.576;12.580;2022-07-04T00:36:46;17.60;99.90
17701;DHT22;8969;48.576;12.580;2022-07-04T00:39:16;17.60;99.90
17701;DHT22;8969;48.576;12.580;2022-07-04T00:41:44;17.60;99.90
17701;DHT22;8969;48.576;12.580;2022-07-04T00:44:13;17.70;99.90
17701;DHT22;8969;48.576;12.580;2022-07-04T00:46:44;17.70;99.90
17701;DHT22;8969;48.576;12.580;2022-07-04T00:49:14;17.70;99.90
17701;DHT22;8969;48.576;12.580;2022-07-04T00:51:44;17.70;99.90
17701;DHT22;8969;48.576;12.580;2022-07-04T00:54:15;17.70;99.90
17701;DHT22;8969;48.576;12.580;2022-07-04T00:56:44;17.70;99.90
17701;DHT22;8969;48.576;12.580;2022-07-04T00:59:13;17.70;99.90
17701;DHT22;8969;48.576;12.580;2022-07-04T01:01:41;17.70;99.90
17701;DHT22;8969;48.576;12.580;2022-07-04T01:04:09;17.70;99.90
17701;DHT22;8969;48.576;12.580;2022-07-04T01:06:37;17.60;99.90
17701;DHT22;8969;48.576;12.580;2022-07-04T01:09:07;17.60;99.90
17701;DHT22;8969;48.576;12.580;2022-07-04T01:11:36;17.60;99.90
17701;DHT22;8969;48.576;12.580;2022-07-04T01:14:05;17.70;99.90
17701;DHT22;8969;48.576;12.580;2022-07-04T01:16:34;17.70;99.90
17701;DHT22;8969;48.576;12.580;2022-07-04T01:19:03;17.70;99.90
17701;DHT22;8969;48.576;12.580;2022-07-04T01:21:33;17.80;99.90
17701;DHT22;8969;48.576;12.580;2022-07-04T01:24:02;17.80;99.90
17701;DHT22;8969;48.576;12.580;2022-07-04T01:26:30;17.80;99.90
17701;DHT22;8969;48.576;12.580;2022-07-04T01:28:59;17.90;99.90
17701;DHT22;8969;48.576;12.580;2022-07-04T01:31:27;17.90;99.90
17701;DHT22;8969;48.576;12.580;2022-07-04T01:33:55;17.80;99.90
17701;DHT22;8969;48.576;12.580;2022-07-04T01:36:24;17.90;99.90
17701;DHT22;8969;48.576;12.580;2022-07-04T01:38:55;17.90;99.90
17701;DHT22;8969;48.576;12.580;2022-07-04T01:45:43;17.90;99.90
17701;DHT22;8969;48.576;12.580;2022-07-04T01:48:12;17.90;99.90
17701;DHT22;8969;48.576;12.580;2022-07-04T01:50:40;17.80;99.90
17701;DHT22;8969;48.576;12.580;2022-07-04T01:53:09;17.80;99.90
17701;DHT22;8969;48.576;12.580;2022-07-04T01:55:39;17.80;99.90
17701;DHT22;8969;48.576;12.580;2022-07-04T02:02:20;17.80;99.90
17701;DHT22;8969;48.576;12.580;2022-07-04T02:04:48;17.90;99.90
17701;DHT22;8969;48.576;12.580;2022-07-04T02:07:17;17.90;99.90
17701;DHT22;8969;48.576;12.580;2022-07-04T02:09:46;17.90;99.90
17701;DHT22;8969;48.576;12.580;2022-07-04T02:12:16;17.90;99.90
17701;DHT22;8969;48.576;12.580;2022-07-04T02:15:02;17.90;99.90
17701;DHT22;8969;48.576;12.580;2022-07-04T02:17:30;17.80;99.90
17701;DHT22;8969;48.576;12.580;2022-07-04T02:19:59;17.80;99.90
17701;DHT22;8969;48.576;12.580;2022-07-04T02:22:27;17.80;99.90
17701;DHT22;8969;48.576;12.580;2022-07-04T02:24:55;17.90;99.90
17701;DHT22;8969;48.576;12.580;2022-07-04T02:27:24;17.90;99.90
17701;DHT22;8969;48.576;12.580;2022-07-04T02:29:53;17.80;99.90
17701;DHT22;8969;48.576;12.580;2022-07-04T02:32:21;17.90;99.90
17701;DHT22;8969;48.576;12.580;2022-07-04T02:34:50;17.90;99.90
17701;DHT22;8969;48.576;12.580;2022-07-04T02:37:18;17.90;99.90
17701;DHT22;8969;48.576;12.580;2022-07-04T02:39:47;17.90;99.90
17701;DHT22;8969;48.576;12.580;2022-07-04T02:42:16;18.00;99.90
17701;DHT22;8969;48.576;12.580;2022-07-04T02:44:46;18.00;99.90
17701;DHT22;8969;48.576;12.580;2022-07-04T02:47:15;18.00;99.90
17701;DHT22;8969;48.576;12.580;2022-07-04T02:49:43;18.00;99.90
17701;DHT22;8969;48.576;12.580;2022-07-04T02:52:13;18.00;99.90
17701;DHT22;8969;48.576;12.580;2022-07-04T02:54:42;18.00;99.90
17701;DHT22;8969;48.576;12.580;2022-07-04T02:57:12;18.00;99.90
17701;DHT22;8969;48.576;12.580;2022-07-04T02:59:41;18.00;99.90
17701;DHT22;8969;48.576;12.580;2022-07-04T03:02:11;18.00;99.90
17701;DHT22;8969;48.576;12.580;2022-07-04T03:04:39;18.00;99.90
17701;DHT22;8969;48.576;12.580;2022-07-04T03:07:08;18.00;99.90
17701;DHT22;8969;48.576;12.580;2022-07-04T03:09:37;18.00;99.90
17701;DHT22;8969;48.576;12.580;2022-07-04T03:12:06;18.00;99.90
17701;DHT22;8969;48.576;12.580;2022-07-04T03:14:34;18.00;99.90
17701;DHT22;8969;48.576;12.580;2022-07-04T03:17:03;18.00;99.90
17701;DHT22;8969;48.576;12.580;2022-07-04T03:19:33;18.10;99.90
17701;DHT22;8969;48.576;12.580;2022-07-04T03:22:01;18.10;99.90
17701;DHT22;8969;48.576;12.580;2022-07-04T03:24:29;18.10;99.90
17701;DHT22;8969;48.576;12.580;2022-07-04T03:26:57;18.10;99.90
17701;DHT22;8969;48.576;12.580;2022-07-04T03:29:26;18.10;99.90
17701;DHT22;8969;48.576;12.580;2022-07-04T03:31:55;18.20;99.90
17701;DHT22;8969;48.576;12.580;2022-07-04T03:34:23;18.20;99.90
17701;DHT22;8969;48.576;12.580;2022-07-04T03:36:52;18.20;99.90
17701;DHT22;8969;48.576;12.580;2022-07-04T03:39:20;18.20;99.90
17701;DHT22;8969;48.576;12.580;2022-07-04T03:41:49;18.30;99.90
17701;DHT22;8969;48.576;12.580;2022-07-04T03:44:17;18.40;99.90
17701;DHT22;8969;48.576;12.580;2022-07-04T03:46:47;18.40;99.90
17701;DHT22;8969;48.576;12.580;2022-07-04T03:49:15;18.50;99.90
17701;DHT22;8969;48.576;12.580;2022-07-04T03:51:43;18.50;99.90
17701;DHT22;8969;48.576;12.580;2022-07-04T03:54:13;18.50;99.90
17701;DHT22;8969;48.576;12.580;2022-07-04T03:56:44;18.50;99.90
17701;DHT22;8969;48.576;12.580;2022-07-04T03:59:12;18.50;99.90
17701;DHT22;8969;48.576;12.580;2022-07-04T04:01:40;18.60;99.90
17701;DHT22;8969;48.576;12.580;2022-07-04T04:04:09;18.60;99.90
17701;DHT22;8969;48.576;12.580;2022-07-04T04:06:55;18.60;99.90
17701;DHT22;8969;48.576;12.580;2022-07-04T04:09:25;18.60;99.90
17701;DHT22;8969;48.576;12.580;2022-07-04T04:11:53;18.60;99.90
17701;DHT22;8969;48.576;12.580;2022-07-04T04:14:22;18.70;99.90
17701;DHT22;8969;48.576;12.580;2022-07-04T04:16:51;18.70;99.90
17701;DHT22;8969;48.576;12.580;2022-07-04T04:19:20;18.70;99.90
17701;DHT22;8969;48.576;12.580;2022-07-04T04:21:48;18.70;99.90
17701;DHT22;8969;48.576;12.580;2022-07-04T04:24:17;18.70;99.90
17701;DHT22;8969;48.576;12.580;2022-07-04T04:26:49;18.80;99.90
17701;DHT22;8969;48.576;12.580;2022-07-04T04:29:18;18.80;99.90
17701;DHT22;8969;48.576;12.580;2022-07-04T04:31:46;18.90;99.90
17701;DHT22;8969;48.576;12.580;2022-07-04T04:34:17;18.80;99.90
17701;DHT22;8969;48.576;12.580;2022-07-04T04:36:47;18.90;99.90
17701;DHT22;8969;48.576;12.580;2022-07-04T04:39:18;18.90;99.90
17701;DHT22;8969;48.576;12.580;2022-07-04T04:41:46;18.90;99.90
17701;DHT22;8969;48.576;12.580;2022-07-04T04:44:17;18.90;99.90
17701;DHT22;8969;48.576;12.580;2022-07-04T04:46:47;19.00;99.90
17701;DHT22;8969;48.576;12.580;2022-07-04T04:49:16;18.90;99.90
17701;DHT22;8969;48.576;12.580;2022-07-04T04:51:46;19.00;99.90
17701;DHT22;8969;48.576;12.580;2022-07-04T04:54:15;19.00;99.90
17701;DHT22;8969;48.576;12.580;2022-07-04T04:56:43;19.10;99.90
17701;DHT22;8969;48.576;12.580;2022-07-04T04:59:12;19.20;99.90
17701;DHT22;8969;48.576;12.580;2022-07-04T05:01:42;19.20;99.90
17701;DHT22;8969;48.576;12.580;2022-07-04T05:04:11;19.20;99.90
17701;DHT22;8969;48.576;12.580;2022-07-04T05:06:42;19.30;99.90
17701;DHT22;8969;48.576;12.580;2022-07-04T05:09:10;19.30;99.90
17701;DHT22;8969;48.576;12.580;2022-07-04T05:11:39;19.20;99.90
17701;DHT22;8969;48.576;12.580;2022-07-04T05:14:07;19.30;99.90
17701;DHT22;8969;48.576;12.580;2022-07-04T05:16:36;19.30;99.90
17701;DHT22;8969;48.576;12.580;2022-07-04T05:19:05;19.50;99.90
17701;DHT22;8969;48.576;12.580;2022-07-04T05:21:34;19.80;99.90
17701;DHT22;8969;48.576;12.580;2022-07-04T05:24:03;20.00;99.90
17701;DHT22;8969;48.576;12.580;2022-07-04T05:26:31;20.20;99.90
17701;DHT22;8969;48.576;12.580;2022-07-04T05:29:00;20.30;99.90
17701;DHT22;8969;48.576;12.580;2022-07-04T05:31:28;20.30;99.90
17701;DHT22;8969;48.576;12.580;2022-07-04T05:33:57;20.20;99.90
17701;DHT22;8969;48.576;12.580;2022-07-04T05:36:27;20.20;99.90
17701;DHT22;8969;48.576;12.580;2022-07-04T05:38:56;20.10;99.90
17701;DHT22;8969;48.576;12.580;2022-07-04T05:41:25;20.10;99.90
17701;DHT22;8969;48.576;12.580;2022-07-04T05:43:53;20.00;99.90
17701;DHT22;8969;48.576;12.580;2022-07-04T05:46:25;20.00;99.90
17701;DHT22;8969;48.576;12.580;2022-07-04T05:48:54;20.00;99.90
17701;DHT22;8969;48.576;12.580;2022-07-04T05:51:23;20.00;99.90
17701;DHT22;8969;48.576;12.580;2022-07-04T05:53:53;20.00;99.90
17701;DHT22;8969;48.576;12.580;2022-07-04T05:56:21;20.00;99.90
17701;DHT22;8969;48.576;12.580;2022-07-04T05:58:50;20.00;99.90
17701;DHT22;8969;48.576;12.580;2022-07-04T06:01:19;20.10;99.90
17701;DHT22;8969;48.576;12.580;2022-07-04T06:03:49;20.10;99.90
17701;DHT22;8969;48.576;12.580;2022-07-04T06:06:20;20.10;99.90
17701;DHT22;8969;48.576;12.580;2022-07-04T06:08:48;20.20;99.90
17701;DHT22;8969;48.576;12.580;2022-07-04T06:11:20;20.30;99.90
17701;DHT22;8969;48.576;12.580;2022-07-04T06:13:50;20.30;99.90
17701;DHT22;8969;48.576;12.580;2022-07-04T06:16:19;20.40;99.90
17701;DHT22;8969;48.576;12.580;2022-07-04T06:18:48;20.50;99.90
17701;DHT22;8969;48.576;12.580;2022-07-04T06:21:16;20.60;99.90
17701;DHT22;8969;48.576;12.580;2022-07-04T06:23:44;20.70;99.90
17701;DHT22;8969;48.576;12.580;2022-07-04T06:26:12;20.80;99.90
17701;DHT22;8969;48.576;12.580;2022-07-04T06:28:42;20.90;99.90
17701;DHT22;8969;48.576;12.580;2022-07-04T06:31:13;21.10;99.90
17701;DHT22;8969;48.576;12.580;2022-07-04T06:33:43;21.10;99.90
17701;DHT22;8969;48.576;12.580;2022-07-04T06:36:29;21.10;99.90
17701;DHT22;8969;48.576;12.580;2022-07-04T06:38:59;21.10;99.90
17701;DHT22;8969;48.576;12.580;2022-07-04T06:41:28;21.10;99.90
17701;DHT22;8969;48.576;12.580;2022-07-04T06:44:00;21.10;99.90
17701;DHT22;8969;48.576;12.580;2022-07-04T06:46:29;21.10;99.90
17701;DHT22;8969;48.576;12.580;2022-07-04T06:48:59;21.10;99.90
17701;DHT22;8969;48.576;12.580;2022-07-04T06:51:28;21.20;99.90
17701;DHT22;8969;48.576;12.580;2022-07-04T06:53:58;21.30;99.90
17701;DHT22;8969;48.576;12.580;2022-07-04T06:56:29;21.60;99.90
17701;DHT22;8969;48.576;12.580;2022-07-04T06:59:00;21.70;99.90
17701;DHT22;8969;48.576;12.580;2022-07-04T07:01:30;21.80;99.90
17701;DHT22;8969;48.576;12.580;2022-07-04T07:03:59;21.90;99.90
17701;DHT22;8969;48.576;12.580;2022-07-04T07:06:27;22.20;99.90
17701;DHT22;8969;48.576;12.580;2022-07-04T07:08:56;22.20;99.90
17701;DHT22;8969;48.576;12.580;2022-07-04T07:11:24;22.20;99.90
17701;DHT22;8969;48.576;12.580;2022-07-04T07:13:55;22.30;99.90
17701;DHT22;8969;48.576;12.580;2022-07-04T07:16:27;22.30;99.90
17701;DHT22;8969;48.576;12.580;2022-07-04T07:18:57;22.20;99.90
17701;DHT22;8969;48.576;12.580;2022-07-04T07:21:25;22.30;99.90
17701;DHT22;8969;48.576;12.580;2022-07-04T07:23:54;22.30;99.90
17701;DHT22;8969;48.576;12.580;2022-07-04T07:26:23;22.30;99.90
17701;DHT22;8969;48.576;12.580;2022-07-04T07:28:52;22.40;99.90
17701;DHT22;8969;48.576;12.580;2022-07-04T07:31:21;22.30;99.90
17701;DHT22;8969;48.576;12.580;2022-07-04T07:33:51;22.30;99.90
17701;DHT22;8969;48.576;12.580;2022-07-04T07:36:19;22.50;99.90
17701;DHT22;8969;48.576;12.580;2022-07-04T07:38:49;22.70;99.90
17701;DHT22;8969;48.576;12.580;2022-07-04T07:41:18;23.00;99.90
17701;DHT22;8969;48.576;12.580;2022-07-04T07:43:46;23.20;99.90
17701;DHT22;8969;48.576;12.580;2022-07-04T07:46:15;23.20;99.90
17701;DHT22;8969;48.576;12.580;2022-07-04T07:48:43;23.40;99.90
17701;DHT22;8969;48.576;12.580;2022-07-04T07:51:13;23.40;99.90
17701;DHT22;8969;48.576;12.580;2022-07-04T07:53:43;23.40;99.90
17701;DHT22;8969;48.576;12.580;2022-07-04T07:56:31;23.40;99.90
17701;DHT22;8969;48.576;12.580;2022-07-04T07:59:00;23.60;99.90
17701;DHT22;8969;48.576;12.580;2022-07-04T08:01:29;23.60;99.90
17701;DHT22;8969;48.576;12.580;2022-07-04T08:03:57;23.70;99.90
17701;DHT22;8969;48.576;12.580;2022-07-04T08:06:50;23.60;99.90
17701;DHT22;8969;48.576;12.580;2022-07-04T08:09:39;23.60;99.90
17701;DHT22;8969;48.576;12.580;2022-07-04T08:12:08;23.70;99.90
17701;DHT22;8969;48.576;12.580;2022-07-04T08:14:37;23.70;99.90
17701;DHT22;8969;48.576;12.580;2022-07-04T08:17:05;23.60;99.90
17701;DHT22;8969;48.576;12.580;2022-07-04T08:19:33;23.60;99.90
17701;DHT22;8969;48.576;12.580;2022-07-04T08:22:03;23.50;99.90
17701;DHT22;8969;48.576;12.580;2022-07-04T08:24:42;23.60;99.90
17701;DHT22;8969;48.576;12.580;2022-07-04T08:27:10;23.60;99.90
17701;DHT22;8969;48.576;12.580;2022-07-04T08:29:39;23.60;99.90
17701;DHT22;8969;48.576;12.580;2022-07-04T08:32:08;23.60;99.90
17701;DHT22;8969;48.576;12.580;2022-07-04T08:34:38;23.70;99.90
17701;DHT22;8969;48.576;12.580;2022-07-04T08:37:09;23.80;99.90
17701;DHT22;8969;48.576;12.580;2022-07-04T08:39:37;23.80;99.90
17701;DHT22;8969;48.576;12.580;2022-07-04T08:42:10;23.80;99.90
17701;DHT22;8969;48.576;12.580;2022-07-04T08:44:46;23.90;99.90
17701;DHT22;8969;48.576;12.580;2022-07-04T08:47:18;24.00;99.90
17701;DHT22;8969;48.576;12.580;2022-07-04T08:49:54;24.10;99.90
17701;DHT22;8969;48.576;12.580;2022-07-04T08:52:35;24.10;99.90
17701;DHT22;8969;48.576;12.580;2022-07-04T08:55:05;24.00;99.90
17701;DHT22;8969;48.576;12.580;2022-07-04T08:57:52;24.10;99.90
17701;DHT22;8969;48.576;12.580;2022-07-04T09:00:39;24.00;99.90
17701;DHT22;8969;48.576;12.580;2022-07-04T09:03:08;24.00;99.90
17701;DHT22;8969;48.576;12.580;2022-07-04T09:05:38;24.20;99.90
17701;DHT22;8969;48.576;12.580;2022-07-04T09:08:08;24.10;99.90
17701;DHT22;8969;48.576;12.580;2022-07-04T09:10:37;24.20;99.90
17701;DHT22;8969;48.576;12.580;2022-07-04T09:13:07;24.30;99.90
17701;DHT22;8969;48.576;12.580;2022-07-04T09:15:39;24.40;99.90
17701;DHT22;8969;48.576;12.580;2022-07-04T09:18:19;24.60;99.90
17701;DHT22;8969;48.576;12.580;2022-07-04T09:20:49;24.50;99.90
17701;DHT22;8969;48.576;12.580;2022-07-04T09:23:21;24.70;99.90
17701;DHT22;8969;48.576;12.580;2022-07-04T09:26:06;24.70;99.90
17701;DHT22;8969;48.576;12.580;2022-07-04T09:28:36;24.70;99.90
17701;DHT22;8969;48.576;12.580;2022-07-04T09:31:14;24.60;99.90
17701;DHT22;8969;48.576;12.580;2022-07-04T09:33:45;24.70;99.90
17701;DHT22;8969;48.576;12.580;2022-07-04T09:36:15;24.70;99.90
17701;DHT22;8969;48.576;12.580;2022-07-04T09:38:46;24.70;99.90
17701;DHT22;8969;48.576;12.580;2022-07-04T09:41:50;24.70;99.90
17701;DHT22;8969;48.576;12.580;2022-07-04T09:44:19;24.60;99.90
17701;DHT22;8969;48.576;12.580;2022-07-04T09:46:48;24.50;99.90
17701;DHT22;8969;48.576;12.580;2022-07-04T09:49:17;24.40;99.90
17701;DHT22;8969;48.576;12.580;2022-07-04T09:51:47;24.50;99.90
17701;DHT22;8969;48.576;12.580;2022-07-04T09:54:22;24.30;99.90
17701;DHT22;8969;48.576;12.580;2022-07-04T09:56:53;24.30;99.90
17701;DHT22;8969;48.576;12.580;2022-07-04T09:59:24;24.20;99.90
17701;DHT22;8969;48.576;12.580;2022-07-04T10:02:07;24.50;99.90
17701;DHT22;8969;48.576;12.580;2022-07-04T10:04:46;25.30;99.90
17701;DHT22;8969;48.576;12.580;2022-07-04T10:07:30;26.00;99.90
17701;DHT22;8969;48.576;12.580;2022-07-04T10:10:25;26.30;99.90
17701;DHT22;8969;48.576;12.580;2022-07-04T10:12:56;26.30;99.90
17701;DHT22;8969;48.576;12.580;2022-07-04T10:15:24;26.40;99.90
17701;DHT22;8969;48.576;12.580;2022-07-04T10:17:53;26.50;99.90
17701;DHT22;8969;48.576;12.580;2022-07-04T10:20:24;26.50;99.90
17701;DHT22;8969;48.576;12.580;2022-07-04T10:22:56;26.60;99.90
17701;DHT22;8969;48.576;12.580;2022-07-04T10:25:26;26.50;99.90
17701;DHT22;8969;48.576;12.580;2022-07-04T10:27:55;26.80;99.90
17701;DHT22;8969;48.576;12.580;2022-07-04T10:30:26;27.10;99.90
17701;DHT22;8969;48.576;12.580;2022-07-04T10:32:59;26.80;99.90
17701;DHT22;8969;48.576;12.580;2022-07-04T10:35:50;26.70;99.90
17701;DHT22;8969;48.576;12.580;2022-07-04T10:38:22;26.70;99.90
17701;DHT22;8969;48.576;12.580;2022-07-04T10:41:02;26.90;99.90
17701;DHT22;8969;48.576;12.580;2022-07-04T10:43:59;27.00;99.90
17701;DHT22;8969;48.576;12.580;2022-07-04T10:49:20;26.50;99.90
17701;DHT22;8969;48.576;12.580;2022-07-04T10:51:49;26.50;99.90
17701;DHT22;8969;48.576;12.580;2022-07-04T10:54:21;26.70;99.90
17701;DHT22;8969;48.576;12.580;2022-07-04T10:56:52;27.00;99.90
17701;DHT22;8969;48.576;12.580;2022-07-04T10:59:23;27.20;99.90
17701;DHT22;8969;48.576;12.580;2022-07-04T11:02:22;27.30;99.50
17701;DHT22;8969;48.576;12.580;2022-07-04T11:04:58;27.70;99.10
17701;DHT22;8969;48.576;12.580;2022-07-04T11:07:57;27.60;96.80
17701;DHT22;8969;48.576;12.580;2022-07-04T11:10:32;27.50;96.80
17701;DHT22;8969;48.576;12.580;2022-07-04T11:13:15;27.80;98.10
17701;DHT22;8969;48.576;12.580;2022-07-04T11:16:04;28.10;98.30
17701;DHT22;8969;48.576;12.580;2022-07-04T11:18:41;28.00;96.30
17701;DHT22;8969;48.576;12.580;2022-07-04T11:21:17;28.10;97.20
17701;DHT22;8969;48.576;12.580;2022-07-04T11:23:51;28.00;96.30
17701;DHT22;8969;48.576;12.580;2022-07-04T11:26:20;28.20;96.00
17701;DHT22;8969;48.576;12.580;2022-07-04T11:28:55;28.00;94.60
17701;DHT22;8969;48.576;12.580;2022-07-04T11:31:40;28.30;95.70
17701;DHT22;8969;48.576;12.580;2022-07-04T11:34:09;28.40;96.40
17701;DHT22;8969;48.576;12.580;2022-07-04T11:36:39;28.40;95.40
17701;DHT22;8969;48.576;12.580;2022-07-04T11:39:10;28.60;95.40
17701;DHT22;8969;48.576;12.580;2022-07-04T11:41:41;28.60;92.40
17701;DHT22;8969;48.576;12.580;2022-07-04T11:44:30;28.60;93.30
17701;DHT22;8969;48.576;12.580;2022-07-04T11:47:17;28.70;93.60
17701;DHT22;8969;48.576;12.580;2022-07-04T11:49:48;28.80;92.50
17701;DHT22;8969;48.576;12.580;2022-07-04T11:52:19;28.60;91.60
17701;DHT22;8969;48.576;12.580;2022-07-04T11:55:09;28.80;92.80
17701;DHT22;8969;48.576;12.580;2022-07-04T11:57:39;28.80;92.30
17701;DHT22;8969;48.576;12.580;2022-07-04T12:00:11;28.70;90.80
17701;DHT22;8969;48.576;12.580;2022-07-04T12:02:45;28.50;91.10
17701;DHT22;8969;48.576;12.580;2022-07-04T12:05:15;28.40;91.60
17701;DHT22;8969;48.576;12.580;2022-07-04T12:07:45;28.40;91.00
17701;DHT22;8969;48.576;12.580;2022-07-04T12:10:34;28.20;90.50
17701;DHT22;8969;48.576;12.580;2022-07-04T12:13:04;28.20;91.00
17701;DHT22;8969;48.576;12.580;2022-07-04T12:15:41;28.20;92.20
17701;DHT22;8969;48.576;12.580;2022-07-04T12:18:16;28.30;92.10
17701;DHT22;8969;48.576;12.580;2022-07-04T12:20:45;28.20;88.80
17701;DHT22;8969;48.576;12.580;2022-07-04T12:23:18;28.30;88.80
17701;DHT22;8969;48.576;12.580;2022-07-04T12:25:48;28.30;89.10
17701;DHT22;8969;48.576;12.580;2022-07-04T12:28:18;28.50;86.20
17701;DHT22;8969;48.576;12.580;2022-07-04T12:30:52;28.70;89.60
17701;DHT22;8969;48.576;12.580;2022-07-04T12:33:24;28.70;84.10
17701;DHT22;8969;48.576;12.580;2022-07-04T12:35:55;28.50;86.40
17701;DHT22;8969;48.576;12.580;2022-07-04T12:38:34;28.30;85.90
17701;DHT22;8969;48.576;12.580;2022-07-04T12:41:05;28.40;85.20
17701;DHT22;8969;48.576;12.580;2022-07-04T12:43:46;28.80;90.40
17701;DHT22;8969;48.576;12.580;2022-07-04T12:46:28;28.70;85.70
17701;DHT22;8969;48.576;12.580;2022-07-04T12:48:59;28.70;82.40
17701;DHT22;8969;48.576;12.580;2022-07-04T12:51:30;28.60;85.40
17701;DHT22;8969;48.576;12.580;2022-07-04T12:54:07;28.90;86.70
17701;DHT22;8969;48.576;12.580;2022-07-04T12:56:36;28.80;86.00
17701;DHT22;8969;48.576;12.580;2022-07-04T12:59:08;28.70;86.40
17701;DHT22;8969;48.576;12.580;2022-07-04T13:01:41;28.70;85.20
17701;DHT22;8969;48.576;12.580;2022-07-04T13:04:10;28.90;85.30
17701;DHT22;8969;48.576;12.580;2022-07-04T13:06:40;28.70;81.30
17701;DHT22;8969;48.576;12.580;2022-07-04T13:09:08;28.30;82.60
17701;DHT22;8969;48.576;12.580;2022-07-04T13:11:37;28.10;84.80
17701;DHT22;8969;48.576;12.580;2022-07-04T13:14:24;27.60;82.00
17701;DHT22;8969;48.576;12.580;2022-07-04T13:16:53;27.80;84.60
17701;DHT22;8969;48.576;12.580;2022-07-04T13:19:21;27.90;87.00
17701;DHT22;8969;48.576;12.580;2022-07-04T13:21:50;27.90;86.20
17701;DHT22;8969;48.576;12.580;2022-07-04T13:24:19;28.10;89.80
17701;DHT22;8969;48.576;12.580;2022-07-04T13:26:49;28.60;90.50
17701;DHT22;8969;48.576;12.580;2022-07-04T13:29:18;28.70;91.00
17701;DHT22;8969;48.576;12.580;2022-07-04T13:31:46;28.60;90.90
17701;DHT22;8969;48.576;12.580;2022-07-04T13:34:16;28.50;88.50
17701;DHT22;8969;48.576;12.580;2022-07-04T13:36:45;28.60;86.20
17701;DHT22;8969;48.576;12.580;2022-07-04T13:39:14;28.70;86.50
17701;DHT22;8969;48.576;12.580;2022-07-04T13:42:07;28.80;88.80
17701;DHT22;8969;48.576;12.580;2022-07-04T13:44:35;28.70;84.70
17701;DHT22;8969;48.576;12.580;2022-07-04T13:47:04;28.70;88.80
17701;DHT22;8969;48.576;12.580;2022-07-04T13:49:36;28.80;88.10
17701;DHT22;8969;48.576;12.580;2022-07-04T13:52:05;28.80;88.30
17701;DHT22;8969;48.576;12.580;2022-07-04T13:54:33;28.70;88.30
17701;DHT22;8969;48.576;12.580;2022-07-04T13:57:02;28.50;88.40
17701;DHT22;8969;48.576;12.580;2022-07-04T13:59:31;28.50;90.00
17701;DHT22;8969;48.576;12.580;2022-07-04T14:01:59;28.40;87.50
17701;DHT22;8969;48.576;12.580;2022-07-04T14:04:27;28.30;90.90
17701;DHT22;8969;48.576;12.580;2022-07-04T14:06:57;28.20;90.20
17701;DHT22;8969;48.576;12.580;2022-07-04T14:09:25;28.40;87.60
17701;DHT22;8969;48.576;12.580;2022-07-04T14:11:54;28.40;87.50
17701;DHT22;8969;48.576;12.580;2022-07-04T14:14:22;28.60;88.10
17701;DHT22;8969;48.576;12.580;2022-07-04T14:16:50;28.70;84.10
17701;DHT22;8969;48.576;12.580;2022-07-04T14:19:19;28.70;85.80
17701;DHT22;8969;48.576;12.580;2022-07-04T14:21:47;28.60;88.00
17701;DHT22;8969;48.576;12.580;2022-07-04T14:24:17;28.50;90.60
17701;DHT22;8969;48.576;12.580;2022-07-04T14:26:50;28.40;85.20
17701;DHT22;8969;48.576;12.580;2022-07-04T14:29:18;28.40;87.90
17701;DHT22;8969;48.576;12.580;2022-07-04T14:31:47;28.50;85.30
17701;DHT22;8969;48.576;12.580;2022-07-04T14:34:18;28.40;83.60
17701;DHT22;8969;48.576;12.580;2022-07-04T14:36:47;28.40;83.90
17701;DHT22;8969;48.576;12.580;2022-07-04T14:39:17;28.60;86.30
17701;DHT22;8969;48.576;12.580;2022-07-04T14:41:47;28.60;86.10
17701;DHT22;8969;48.576;12.580;2022-07-04T14:44:16;28.70;87.70
17701;DHT22;8969;48.576;12.580;2022-07-04T14:46:44;28.60;82.10
17701;DHT22;8969;48.576;12.580;2022-07-04T14:49:13;28.60;82.40
17701;DHT22;8969;48.576;12.580;2022-07-04T14:51:41;28.60;87.00
17701;DHT22;8969;48.576;12.580;2022-07-04T14:54:10;28.50;81.70
17701;DHT22;8969;48.576;12.580;2022-07-04T14:56:40;28.50;86.80
17701;DHT22;8969;48.576;12.580;2022-07-04T14:59:08;28.40;91.10
17701;DHT22;8969;48.576;12.580;2022-07-04T15:01:36;28.30;90.90
17701;DHT22;8969;48.576;12.580;2022-07-04T15:04:05;28.30;88.60
17701;DHT22;8969;48.576;12.580;2022-07-04T15:06:34;28.30;85.40
17701;DHT22;8969;48.576;12.580;2022-07-04T15:09:02;28.30;87.40
17701;DHT22;8969;48.576;12.580;2022-07-04T15:11:32;28.30;86.90
17701;DHT22;8969;48.576;12.580;2022-07-04T15:14:02;28.20;83.90
17701;DHT22;8969;48.576;12.580;2022-07-04T15:16:30;28.20;85.60
17701;DHT22;8969;48.576;12.580;2022-07-04T15:18:59;28.00;86.40
17701;DHT22;8969;48.576;12.580;2022-07-04T15:21:27;27.80;88.70
17701;DHT22;8969;48.576;12.580;2022-07-04T15:24:13;27.70;88.60
17701;DHT22;8969;48.576;12.580;2022-07-04T15:26:43;27.80;88.20
17701;DHT22;8969;48.576;12.580;2022-07-04T15:29:13;27.80;90.00
17701;DHT22;8969;48.576;12.580;2022-07-04T15:31:43;27.70;91.30
17701;DHT22;8969;48.576;12.580;2022-07-04T15:34:13;27.60;90.90
17701;DHT22;8969;48.576;12.580;2022-07-04T15:36:41;27.40;90.50
17701;DHT22;8969;48.576;12.580;2022-07-04T15:39:12;27.30;90.80
17701;DHT22;8969;48.576;12.580;2022-07-04T15:41:41;27.20;91.50
17701;DHT22;8969;48.576;12.580;2022-07-04T15:44:13;27.10;91.10
17701;DHT22;8969;48.576;12.580;2022-07-04T15:46:42;27.10;91.60
17701;DHT22;8969;48.576;12.580;2022-07-04T15:49:28;27.00;91.90
17701;DHT22;8969;48.576;12.580;2022-07-04T15:51:56;27.10;86.00
17701;DHT22;8969;48.576;12.580;2022-07-04T15:54:24;27.20;90.90
17701;DHT22;8969;48.576;12.580;2022-07-04T15:56:54;27.20;89.80
17701;DHT22;8969;48.576;12.580;2022-07-04T15:59:27;27.20;86.60
17701;DHT22;8969;48.576;12.580;2022-07-04T16:01:55;27.20;88.90
17701;DHT22;8969;48.576;12.580;2022-07-04T16:04:24;27.20;90.30
17701;DHT22;8969;48.576;12.580;2022-07-04T16:06:52;27.00;91.00